Flight Track Log - Related Links

Times and Time Zones

All times are in EDT time to prevent confusion due to time zone crossing. See the VH-MWY flight status page for this flight to view local times or setup timezone preferences in your user account.

Time Position Orientation Groundspeed Altitude Reporting Facility
EDT Latitude Longitude Course Direction KTS MPH feet Rate Location/Type
Sat 07:32:15 PM -33.6995 151.1518 78° East 112 129 1,900  Level Aus ATC (RADAR)
Sat 07:33:20 PM -33.6923 151.1935 78° East 113 130 1,600 -242 Descending Aus ATC (RADAR)
Sat 07:33:54 PM -33.6925 151.2159 91° East 111 128 1,500 -110 Descending Aus ATC (RADAR)
Sat 07:35:09 PM -33.7016 151.2594 104° East 108 124 1,400  Descending Aus ATC (RADAR)
Sat 07:35:29 PM -33.7043 151.2710 106° East 106 122 1,500 109 Climbing Aus ATC (RADAR)
Sat 07:36:04 PM -33.7092 151.2905 107° East 103 119 1,500  Level Aus ATC (RADAR)
Sat 07:37:04 PM -33.7295 151.3119 139° Southeast 103 119 1,500  Level Aus ATC (RADAR)
Sat 07:37:39 PM -33.7449 151.3085 190° South 97 112 1,500 -67 Level Aus ATC (RADAR)
Sat 07:38:34 PM -33.7677 151.2981 201° Southwest 94 108 1,400  Descending Aus ATC (RADAR)
Sat 07:39:29 PM -33.7891 151.2846 207° Southwest 94 108 1,500 67 Climbing Aus ATC (RADAR)
Sat 07:40:04 PM -33.8007 151.2724 221° Southwest 94 108 1,500  Level Aus ATC (RADAR)
Sat 07:40:19 PM -33.8059 151.2670 221° Southwest 96 110 1,500  Level Aus ATC (RADAR)
Sat 07:40:59 PM -33.8187 151.2529 222° Southwest 92 106 1,500 -63 Level Aus ATC (RADAR)
Sat 07:41:54 PM -33.8302 151.2313 237° Southwest 81 93 1,400 -133 Descending Aus ATC (RADAR)
Sat 07:42:29 PM -33.8424 151.2223 211° Southwest 92 106 1,300  Descending Aus ATC (RADAR)
Sat 07:43:24 PM -33.8566 151.2349 144° Southeast 91 105 1,400 133 Climbing Aus ATC (RADAR)
Sat 07:43:59 PM -33.8482 151.2479 52° Northeast 87 100 1,500  Climbing Aus ATC (RADAR)
Sat 07:44:58 PM -33.8369 151.2346 316° Northwest 76 87 1,400 171 Descending Aus ATC (RADAR)
Sat 07:45:09 PM -33.8416 151.2346 180° South 85 98 1,700 120 Climbing Aus ATC (RADAR)
Sat 07:45:48 PM -33.8381 151.2577 80° East 100 115 1,500 -128 Descending Aus ATC (RADAR)
Sat 07:46:43 PM -33.8299 151.2853 70° East 91 105 1,500 -600 Level Aus ATC (RADAR)
Sat 07:47:18 PM -33.8261 151.3040 76° East 92 106 600 -825 Descending Aus ATC (RADAR)
Sat 07:48:03 PM -33.8422 151.2968 200° South 91 105 400 -267 Descending Aus ATC (RADAR)
Sat 07:51:24 PM -33.8203 151.2928 310° West 1,500 328 Climbing Aus ATC (Calculated)
Sat 07:53:00 PM -33.7992 151.2622 310° West  Level FlightAware Approximate
Sat 07:54:00 PM -33.7860 151.2431 310° West  Level FlightAware Approximate
Sat 07:55:00 PM -33.7728 151.2240 310° West  Level FlightAware Approximate
Sat 07:56:00 PM -33.7596 151.2049 310° West  Level FlightAware Approximate
Sat 07:57:00 PM -33.7464 151.1858 310° West  Level FlightAware Approximate
Sat 07:58:00 PM -33.7332 151.1667 310° West  Level FlightAware Approximate
Sat 07:59:00 PM -33.7200 151.1476 310° West  Level FlightAware Approximate
Sat 07:59:40 PM -33.7983 151.2889 304° West 1,500  Level Aus ATC (Calculated)
Sat 08:00:00 PM -33.7068 151.1285 310° West  Level FlightAware Approximate
Sat 08:01:00 PM -33.8104 151.2591 232° Southwest  Level Estimated
Sat 08:02:00 PM -33.8109 151.2343 269° West  Level FlightAware Approximate
Sat 08:03:00 PM -33.8114 151.2094 269° West  Level FlightAware Approximate
Sat 08:04:00 PM -33.8119 151.1846 269° West  Level FlightAware Approximate
Sat 08:05:00 PM -33.8123 151.1597 269° West  Level FlightAware Approximate
Sat 08:06:00 PM -33.8128 151.1349 269° West  Level FlightAware Approximate
Sat 08:06:14 PM -33.6917 151.1067 232° Southwest 1,500  Level Aus ATC (Calculated)
Sat 08:08:00 PM -33.7143 151.0723 232° Southwest  Level FlightAware Approximate
Sat 08:09:00 PM -33.7271 151.0528 232° Southwest  Level FlightAware Approximate
Sat 08:10:00 PM -33.7400 151.0334 232° Southwest  Level FlightAware Approximate
Sat 08:11:00 PM -33.7549 151.0162 220° Southwest  Level Estimated
Sat 08:12:00 PM -33.7699 150.9991 223° Southwest  Level FlightAware Approximate
Sat 08:13:00 PM -33.7849 150.9821 223° Southwest  Level FlightAware Approximate
Sat 08:13:32 PM -33.8167 150.9167 67° East 200  Level Aus ATC (Calculated)
Sat 08:14:00 PM -33.7999 150.9650 223° Southwest  Level FlightAware Approximate
Sat 08:15:00 PM -33.8399 150.8932 220° Southwest  Level FlightAware Approximate
Sat 08:16:00 PM -33.8557 150.8772 220° Southwest  Level FlightAware Approximate
Sat 08:17:00 PM -33.8715 150.8612 220° Southwest  Level FlightAware Approximate
Sat 08:18:00 PM -33.8873 150.8452 220° Southwest  Level FlightAware Approximate
Sat 08:19:00 PM -33.9031 150.8292 220° Southwest  Level FlightAware Approximate
Sat 08:20:00 PM -33.9189 150.8131 220° Southwest  Level FlightAware Approximate
Sat 08:21:00 PM -33.9347 150.7971 220° Southwest  Level FlightAware Approximate
Sat 08:22:00 PM -33.9505 150.7811 220° Southwest  Level FlightAware Approximate
Sat 08:23:00 PM -33.9663 150.7650 220° Southwest  Level FlightAware Approximate
Sat 08:23:07 PM -34.0422 150.6878 347° North 200  Level Aus ATC (Calculated)
Sat 08:24:22 PM -34.0412 150.6875 347° North -160 Descending Aus ATC (Calculated)
Sat 08:26:00 PM -34.0402 150.6872 347° North  Level FlightAware Approximate
Sat 08:27:00 PM -34.0403 150.6872 347° North  Level Estimated
Sat 08:28:00 PM -34.0403 150.6872 347° North  Level Estimated
Sat 08:29:00 PM -34.0403 150.6872 347° North  Level Estimated
Sat 08:30:00 PM -34.0403 150.6872 347° North  Level Estimated
Sat 08:31:00 PM -34.0403 150.6872 347° North  Level Estimated
Sat 08:32:00 PM -34.0403 150.6872 347° North  Level Estimated
Sat 08:33:00 PM -34.0403 150.6872 347° North  Level Estimated
Sat 08:34:00 PM -34.0403 150.6872 347° North  Level Estimated
Sat 08:35:00 PM -34.0403 150.6872 347° North  Level Estimated
Sat 08:36:00 PM -34.0403 150.6872 347° North  Level Estimated
Sat 08:37:00 PM -34.0403 150.6872 347° North  Level Estimated
Sat 08:38:00 PM -34.0403 150.6872 347° North  Level Estimated
Sat 08:39:00 PM -34.0403 150.6872 347° North  Level Estimated
Sat 08:40:00 PM -34.0403 150.6872 347° North  Level Estimated
Sat 08:41:00 PM -34.0403 150.6872 347° North  Level Estimated

Login

Don't have an account? Register now (free) for customized features, flight alerts, and more!